Time;durP1;ratioP1;P1;durP2;ratioP2;P2;SDS_P1;SDS_P2;PMS_P1;PMS_P2;Temp;Humidity;BMP_temperature;BMP_pressure;BME280_temperature;BME280_humidity;BME280_pressure;Samples;Min_cycle;Max_cycle;Signal;HPM_P1;HPM_P2
2022/07/30 00:00:58;;;;;;;16.70;11.20;;;;;;;24.57;52.70;101807.41;5012473;28;20034;-67
2022/07/30 00:03:25;;;;;;;20.35;12.07;;;;;;;24.25;53.75;101808.09;5012297;28;20041;-70
2022/07/30 00:05:50;;;;;;;17.98;11.48;;;;;;;24.54;52.27;101810.75;5012956;28;20030;-68
2022/07/30 00:08:15;;;;;;;17.48;11.70;;;;;;;24.71;52.05;101806.38;5012259;28;20421;-69
2022/07/30 00:10:41;;;;;;;22.70;12.35;;;;;;;24.63;52.43;101806.25;5012507;28;20478;-68
2022/07/30 00:13:07;;;;;;;16.52;11.27;;;;;;;24.62;52.10;101799.09;5009884;28;20088;-70
2022/07/30 00:15:32;;;;;;;14.88;10.40;;;;;;;24.79;51.31;101796.69;5012101;28;20108;-69
2022/07/30 00:17:58;;;;;;;21.55;11.85;;;;;;;24.70;51.71;101803.94;5012344;28;20030;-68
2022/07/30 00:20:23;;;;;;;23.63;11.45;;;;;;;24.76;52.03;101800.03;5010754;28;20050;-67
2022/07/30 00:22:48;;;;;;;19.13;11.02;;;;;;;24.53;52.16;101798.91;5010679;28;20042;-69
2022/07/30 00:25:16;;;;;;;19.23;11.48;;;;;;;24.83;52.25;101790.28;5012465;28;20029;-68
2022/07/30 00:27:41;;;;;;;16.95;12.20;;;;;;;24.72;52.41;101790.72;5012036;28;20033;-69
2022/07/30 00:30:07;;;;;;;14.82;10.95;;;;;;;24.55;52.54;101793.94;5012066;28;20037;-69
2022/07/30 00:32:33;;;;;;;14.70;10.73;;;;;;;24.39;53.30;101792.53;5011699;28;20058;-68
2022/07/30 00:34:58;;;;;;;16.05;11.50;;;;;;;24.27;53.34;101794.88;5011849;28;20026;-68
2022/07/30 00:37:23;;;;;;;17.48;12.00;;;;;;;24.31;53.14;101793.97;5011048;28;20025;-69
2022/07/30 00:39:49;;;;;;;28.15;12.23;;;;;;;24.37;53.11;101794.75;5010609;28;20426;-69
2022/07/30 00:42:16;;;;;;;14.98;10.98;;;;;;;24.43;52.25;101799.88;5010259;28;20033;-68
2022/07/30 00:44:42;;;;;;;22.17;11.57;;;;;;;24.23;52.99;101799.31;5011688;28;20084;-69
2022/07/30 00:47:07;;;;;;;15.80;10.90;;;;;;;24.26;53.18;101794.06;5012117;28;20033;-68
2022/07/30 00:49:32;;;;;;;12.40;10.02;;;;;;;24.29;53.09;101798.16;5012372;28;20537;-68
2022/07/30 00:51:58;;;;;;;16.63;11.25;;;;;;;24.18;53.42;101800.19;5011809;28;20401;-70
2022/07/30 00:54:23;;;;;;;12.90;10.02;;;;;;;24.05;53.67;101797.31;5011880;28;20398;-69
2022/07/30 00:56:49;;;;;;;16.02;10.93;;;;;;;24.19;53.72;101798.28;4996294;28;20139;-69
2022/07/30 00:59:15;;;;;;;11.27;8.90;;;;;;;24.05;53.22;101789.91;4992206;28;20037;-68
2022/07/30 01:01:40;;;;;;;14.70;10.15;;;;;;;24.09;53.69;101788.22;4992409;28;20026;-70
2022/07/30 01:04:10;;;;;;;18.95;10.63;;;;;;;23.93;54.15;101788.63;4990873;28;20034;-70
2022/07/30 01:06:37;;;;;;;15.93;10.50;;;;;;;23.86;54.47;101793.66;4991603;28;20038;-68
2022/07/30 01:09:02;;;;;;;13.88;10.23;;;;;;;24.02;54.55;101793.22;4991468;28;20050;-69
2022/07/30 01:11:34;;;;;;;14.68;10.80;;;;;;;24.22;53.19;101786.69;4991839;28;20031;-69
2022/07/30 01:14:00;;;;;;;12.85;9.50;;;;;;;24.01;53.84;101791.56;4991808;28;20054;-68
2022/07/30 01:16:25;;;;;;;20.38;10.32;;;;;;;23.88;54.04;101781.25;4992507;28;20505;-69
2022/07/30 01:21:40;;;;;;;10.95;8.70;;;;;;;23.48;55.17;101781.69;4972539;28;20993;-68
2022/07/30 01:24:48;;;;;;;11.38;9.20;;;;;;;23.70;54.90;101784.78;4972456;28;20035;-68
2022/07/30 01:27:16;;;;;;;9.98;8.30;;;;;;;23.91;54.51;101788.13;4968989;28;20054;-69
2022/07/30 01:29:43;;;;;;;10.77;9.07;;;;;;;23.78;54.85;101789.63;4969612;28;20054;-69
2022/07/30 01:32:10;;;;;;;9.77;8.68;;;;;;;23.47;55.24;101789.09;4969723;28;20125;-69
2022/07/30 01:34:37;;;;;;;10.05;8.68;;;;;;;23.42;55.77;101788.31;4986462;28;20062;-69
2022/07/30 01:37:07;;;;;;;9.82;8.77;;;;;;;23.22;56.55;101781.03;4972561;28;20700;-68
2022/07/30 01:39:34;;;;;;;9.20;8.25;;;;;;;23.42;55.72;101789.16;4988864;28;20125;-67
2022/07/30 01:42:04;;;;;;;12.40;9.32;;;;;;;23.51;56.12;101786.56;4988517;28;20042;-69
2022/07/30 01:44:30;;;;;;;11.95;8.95;;;;;;;23.57;55.55;101787.38;4988710;28;20053;-69
2022/07/30 01:46:56;;;;;;;14.15;10.30;;;;;;;23.32;56.39;101791.16;4988641;28;20070;-69
2022/07/30 01:49:23;;;;;;;9.93;8.85;;;;;;;23.22;56.61;101786.53;4989315;28;20136;-68
2022/07/30 01:51:50;;;;;;;10.60;8.73;;;;;;;23.51;55.65;101790.16;4988748;28;20038;-70
2022/07/30 01:54:17;;;;;;;12.18;9.20;;;;;;;22.97;57.96;101778.50;4988426;28;20035;-69
2022/07/30 01:56:46;;;;;;;12.55;9.38;;;;;;;23.31;56.59;101792.25;4988269;28;20049;-69
2022/07/30 01:59:16;;;;;;;19.50;10.35;;;;;;;23.14;57.58;101791.78;4972253;28;20607;-69
2022/07/30 02:01:42;;;;;;;12.48;11.23;;;;;;;23.13;57.30;101796.50;4988984;28;20038;-69
2022/07/30 02:04:07;;;;;;;14.52;11.50;;;;;;;22.99;58.11;101798.22;4989361;28;20037;-68
2022/07/30 02:07:05;;;;;;;13.07;11.70;;;;;;;23.16;57.67;101793.16;4990956;28;20081;-68
2022/07/30 02:09:40;;;;;;;17.90;11.90;;;;;;;23.18;57.73;101788.22;4990859;28;20096;-68
2022/07/30 02:12:27;;;;;;;20.33;11.77;;;;;;;23.18;57.34;101787.38;4989770;28;20043;-69
2022/07/30 02:15:16;;;;;;;21.92;12.93;;;;;;;23.10;57.72;101791.56;4990037;28;20042;-70
2022/07/30 02:18:01;;;;;;;27.38;12.73;;;;;;;23.13;58.32;101787.44;4969874;28;20117;-69
2022/07/30 02:20:29;;;;;;;14.70;11.43;;;;;;;23.10;58.19;101790.72;4982567;28;20073;-69
2022/07/30 02:23:00;;;;;;;18.92;13.23;;;;;;;23.12;57.60;101783.03;4989965;28;20065;-68
2022/07/30 02:25:28;;;;;;;16.85;12.35;;;;;;;23.34;56.80;101781.53;4990265;28;20018;-69
2022/07/30 02:27:57;;;;;;;26.20;12.88;;;;;;;23.13;57.54;101780.03;4989587;28;20058;-68
2022/07/30 02:30:25;;;;;;;17.08;12.95;;;;;;;23.29;57.79;101792.50;4990202;28;20031;-69
2022/07/30 02:32:54;;;;;;;25.33;12.38;;;;;;;23.05;57.94;101785.28;4990845;28;20030;-68
2022/07/30 02:35:22;;;;;;;15.30;12.32;;;;;;;23.10;57.97;101780.59;4991039;28;20559;-68
2022/07/30 02:37:51;;;;;;;18.00;12.57;;;;;;;23.00;58.25;101777.91;4990770;28;20045;-69
2022/07/30 02:40:19;;;;;;;24.10;11.60;;;;;;;23.04;57.98;101778.97;4990968;28;20042;-68
2022/07/30 02:42:46;;;;;;;17.75;11.95;;;;;;;23.25;57.71;101779.66;4990198;28;20060;-69
2022/07/30 02:45:14;;;;;;;16.02;13.43;;;;;;;23.21;57.70;101781.34;4990240;28;20117;-69
2022/07/30 02:47:41;;;;;;;14.13;12.77;;;;;;;23.04;58.67;101776.25;4990272;28;20490;-69
2022/07/30 02:50:08;;;;;;;17.42;13.20;;;;;;;23.28;58.20;101773.59;4990333;28;20506;-68
2022/07/30 02:52:35;;;;;;;15.38;12.23;;;;;;;23.14;58.09;101775.34;4990520;28;20014;-69
2022/07/30 02:55:02;;;;;;;13.93;12.13;;;;;;;23.22;57.97;101780.22;4989737;28;20042;-70
2022/07/30 02:57:28;;;;;;;15.27;11.65;;;;;;;23.00;58.53;101777.91;4989993;28;20046;-68
2022/07/30 02:59:55;;;;;;;16.88;12.73;;;;;;;23.24;57.44;101778.00;4990372;28;20121;-68
2022/07/30 03:02:21;;;;;;;16.35;13.43;;;;;;;23.22;58.15;101782.97;4990314;28;20371;-69
2022/07/30 03:04:47;;;;;;;20.50;14.40;;;;;;;23.44;57.32;101778.69;4990090;28;20130;-67
2022/07/30 03:07:14;;;;;;;16.92;13.00;;;;;;;23.43;57.08;101787.19;4990513;28;20026;-68
2022/07/30 03:09:41;;;;;;;16.67;12.88;;;;;;;23.18;58.03;101774.50;4990238;28;20565;-69
2022/07/30 03:12:09;;;;;;;18.88;14.63;;;;;;;23.23;57.36;101773.66;4989575;28;20034;-70
2022/07/30 03:14:34;;;;;;;15.15;13.00;;;;;;;22.98;58.59;101774.63;4989603;28;20038;-68
2022/07/30 03:17:02;;;;;;;16.20;12.77;;;;;;;23.15;58.20;101771.50;4989643;28;20041;-69
2022/07/30 03:19:31;;;;;;;15.52;12.98;;;;;;;23.06;58.08;101774.03;4990230;28;20457;-69
2022/07/30 03:21:59;;;;;;;25.90;12.90;;;;;;;23.03;57.89;101771.06;4989869;28;20499;-70
2022/07/30 03:24:26;;;;;;;21.65;13.40;;;;;;;23.21;57.46;101776.66;4989763;28;20053;-69
2022/07/30 03:26:54;;;;;;;15.63;11.88;;;;;;;23.17;57.57;101781.09;4990422;28;20029;-68
2022/07/30 03:29:23;;;;;;;13.05;11.65;;;;;;;23.21;56.60;101787.63;5004425;28;20044;-69
2022/07/30 03:31:49;;;;;;;13.73;10.93;;;;;;;23.33;56.13;101787.31;4990530;28;20125;-68
2022/07/30 03:34:16;;;;;;;16.20;12.20;;;;;;;23.21;57.48;101786.81;4989091;28;20458;-69
2022/07/30 03:36:42;;;;;;;17.27;11.55;;;;;;;23.11;57.28;101782.25;4989583;28;20034;-70
2022/07/30 03:39:08;;;;;;;19.13;12.65;;;;;;;23.24;56.70;101788.97;4989332;28;20427;-69
2022/07/30 03:41:35;;;;;;;23.10;13.23;;;;;;;23.32;56.53;101793.88;4989455;28;20125;-68
2022/07/30 03:44:01;;;;;;;13.40;11.27;;;;;;;23.22;56.67;101792.00;4989654;28;20101;-70
2022/07/30 03:46:28;;;;;;;16.40;12.50;;;;;;;23.22;56.46;101791.19;4990090;28;20103;-69
2022/07/30 03:48:55;;;;;;;18.38;12.13;;;;;;;22.80;58.17;101790.94;4989146;28;20129;-69
2022/07/30 03:51:21;;;;;;;13.68;11.80;;;;;;;22.57;59.57;101798.75;4989757;28;20057;-69
2022/07/30 03:53:46;;;;;;;16.08;11.55;;;;;;;22.98;58.20;101796.56;4989137;28;20046;-68
2022/07/30 03:56:13;;;;;;;18.45;13.35;;;;;;;22.50;58.98;101798.19;4989072;28;20629;-68
2022/07/30 03:58:39;;;;;;;19.85;13.25;;;;;;;22.85;58.23;101805.44;4988974;28;20438;-68
2022/07/30 04:01:04;;;;;;;16.48;11.95;;;;;;;22.93;57.91;101802.09;4986809;28;20047;-69
2022/07/30 04:03:31;;;;;;;20.85;12.90;;;;;;;22.70;58.74;101797.31;4970194;28;20368;-69
2022/07/30 04:05:57;;;;;;;24.08;11.93;;;;;;;22.97;57.65;101807.81;4973343;28;20038;-69
2022/07/30 04:08:23;;;;;;;15.63;11.98;;;;;;;22.64;57.96;101804.72;4983775;28;20530;-68
2022/07/30 04:10:49;;;;;;;19.75;11.10;;;;;;;22.90;57.51;101808.13;4977580;28;20498;-69
2022/07/30 04:13:14;;;;;;;12.70;11.02;;;;;;;22.90;57.39;101813.63;4988462;28;20483;-68
2022/07/30 04:16:25;;;;;;;18.75;12.63;;;;;;;23.17;56.86;101815.94;4994040;28;20033;-68
2022/07/30 04:18:55;;;;;;;12.60;10.32;;;;;;;22.87;56.59;101816.94;5006132;28;20084;-68
2022/07/30 04:21:24;;;;;;;13.50;10.55;;;;;;;22.80;57.71;101813.66;4986919;28;20043;-69
2022/07/30 04:23:50;;;;;;;13.07;10.48;;;;;;;22.84;57.08;101813.94;4986501;28;20520;-69
2022/07/30 04:26:17;;;;;;;17.85;10.75;;;;;;;23.04;56.23;101819.28;4986264;28;20112;-68
2022/07/30 04:28:43;;;;;;;13.00;9.82;;;;;;;23.16;55.84;101817.84;4986990;28;20326;-69
2022/07/30 04:31:10;;;;;;;13.10;10.50;;;;;;;23.08;56.48;101815.69;4986120;28;20042;-68
2022/07/30 04:33:35;;;;;;;12.23;8.85;;;;;;;23.32;55.70;101813.91;4986417;28;20661;-69
2022/07/30 04:36:06;;;;;;;13.20;9.68;;;;;;;23.12;55.71;101819.50;4986244;28;20117;-69
2022/07/30 04:38:31;;;;;;;13.00;9.15;;;;;;;23.26;55.31;101817.78;4986094;28;20177;-68
2022/07/30 04:40:57;;;;;;;14.20;9.15;;;;;;;23.19;55.81;101811.78;4988163;28;20502;-68
2022/07/30 04:43:22;;;;;;;10.68;8.75;;;;;;;23.15;55.49;101824.44;4990745;28;20054;-68
2022/07/30 04:45:48;;;;;;;11.75;9.30;;;;;;;23.12;56.34;101818.69;4990145;28;20027;-71
2022/07/30 04:48:13;;;;;;;14.77;8.75;;;;;;;23.09;55.70;101824.75;4989849;28;20049;-69
2022/07/30 04:50:42;;;;;;;12.98;9.07;;;;;;;23.08;55.52;101821.19;4989835;28;20486;-69
2022/07/30 04:53:10;;;;;;;16.77;9.68;;;;;;;23.09;55.47;101825.59;4989376;28;20129;-70
2022/07/30 04:55:40;;;;;;;13.43;9.15;;;;;;;23.09;56.02;101832.97;4972784;28;20094;-68
2022/07/30 04:58:07;;;;;;;12.95;9.32;;;;;;;23.10;55.24;101827.19;4972054;28;20584;-68
2022/07/30 05:00:34;;;;;;;14.13;10.32;;;;;;;23.14;55.44;101831.00;4972905;28;20089;-68
2022/07/30 05:03:03;;;;;;;10.98;9.68;;;;;;;22.85;56.96;101835.59;4973116;28;20043;-69
2022/07/30 05:05:31;;;;;;;14.98;8.45;;;;;;;22.97;56.39;101836.06;4984772;28;20030;-69
2022/07/30 05:07:57;;;;;;;20.70;10.43;;;;;;;23.12;56.15;101835.97;4991744;28;20340;-69
2022/07/30 05:10:22;;;;;;;16.77;8.70;;;;;;;23.30;55.49;101837.22;4992970;28;20030;-68
2022/07/30 05:12:48;;;;;;;17.52;9.48;;;;;;;23.09;56.20;101842.03;4991650;28;20058;-67
2022/07/30 05:15:13;;;;;;;16.27;9.32;;;;;;;23.23;56.32;101845.75;4990515;28;20073;-68
2022/07/30 05:17:38;;;;;;;13.38;9.30;;;;;;;23.36;55.75;101839.66;4992024;28;20406;-68
2022/07/30 05:20:04;;;;;;;13.73;9.35;;;;;;;23.06;56.87;101845.31;4991772;28;20414;-68
2022/07/30 05:22:30;;;;;;;18.58;10.27;;;;;;;23.21;56.07;101849.91;4992424;28;20046;-68
2022/07/30 05:24:56;;;;;;;19.55;10.13;;;;;;;23.42;55.61;101843.19;4991694;28;20094;-70
2022/07/30 05:27:21;;;;;;;12.77;9.32;;;;;;;23.32;56.12;101841.34;4992312;28;20499;-68
2022/07/30 05:29:46;;;;;;;17.10;9.35;;;;;;;23.42;55.57;101843.19;4991721;28;20054;-69
2022/07/30 05:32:12;;;;;;;12.38;9.30;;;;;;;23.13;57.46;101848.59;4991675;28;20031;-68
2022/07/30 05:34:38;;;;;;;16.55;9.85;;;;;;;23.23;57.05;101853.97;4992166;28;20045;-69
2022/07/30 05:37:03;;;;;;;10.60;8.60;;;;;;;23.41;56.74;101847.84;4991650;28;20031;-69
2022/07/30 05:39:29;;;;;;;13.93;8.93;;;;;;;23.45;56.41;101848.91;4989871;28;20046;-70
2022/07/30 05:41:54;;;;;;;15.50;10.05;;;;;;;23.40;56.90;101859.94;4991235;28;20030;-68
2022/07/30 05:44:20;;;;;;;13.23;9.02;;;;;;;23.37;57.36;101859.69;4992331;28;20038;-69
2022/07/30 05:46:45;;;;;;;12.93;9.52;;;;;;;23.17;57.88;101857.88;4992117;28;20043;-68
2022/07/30 05:49:11;;;;;;;14.75;8.80;;;;;;;23.39;57.69;101865.69;4991588;28;20042;-68
2022/07/30 05:51:36;;;;;;;23.02;10.57;;;;;;;23.65;56.30;101858.09;4990987;28;20046;-69
2022/07/30 05:54:02;;;;;;;17.30;9.35;;;;;;;23.47;56.75;101859.59;4991561;28;20672;-69
2022/07/30 05:56:27;;;;;;;13.65;8.95;;;;;;;23.75;56.16;101858.81;4991760;28;20387;-69
2022/07/30 05:58:53;;;;;;;23.02;9.73;;;;;;;23.66;56.76;101867.97;4991980;28;20034;-69
2022/07/30 06:01:18;;;;;;;20.40;9.30;;;;;;;23.71;56.86;101867.91;4992244;28;20023;-69
2022/07/30 06:03:43;;;;;;;15.30;9.18;;;;;;;23.53;57.80;101867.53;4991320;28;20038;-69
2022/07/30 06:06:09;;;;;;;20.33;10.52;;;;;;;23.54;57.90;101865.59;4991484;28;20043;-68
2022/07/30 06:08:34;;;;;;;14.70;9.30;;;;;;;22.94;59.23;101864.03;4991146;28;20027;-68
2022/07/30 06:11:00;;;;;;;12.68;9.07;;;;;;;22.76;60.16;101861.13;4991226;28;20026;-69
2022/07/30 06:13:25;;;;;;;16.60;9.75;;;;;;;23.39;59.11;101873.94;4991564;28;20061;-68
2022/07/30 06:15:50;;;;;;;15.85;8.82;;;;;;;23.52;58.70;101868.63;4991381;28;20108;-70
2022/07/30 06:18:16;;;;;;;23.10;9.45;;;;;;;23.29;59.12;101879.47;4990960;28;20041;-68
2022/07/30 06:20:41;;;;;;;11.38;8.07;;;;;;;23.46;58.89;101885.41;4990737;28;20043;-68
2022/07/30 06:23:06;;;;;;;11.02;8.95;;;;;;;23.11;60.25;101875.47;4990734;28;20038;-68
2022/07/30 06:25:32;;;;;;;9.65;8.00;;;;;;;23.32;59.27;101878.94;5006050;28;20451;-67
2022/07/30 06:27:57;;;;;;;14.75;8.93;;;;;;;23.24;59.94;101880.31;4991178;28;20070;-69
2022/07/30 06:30:23;;;;;;;14.13;9.20;;;;;;;23.61;59.11;101878.97;5005937;28;20034;-69
2022/07/30 06:32:48;;;;;;;13.55;9.45;;;;;;;23.42;59.80;101882.44;4991241;28;20387;-69
2022/07/30 06:35:14;;;;;;;13.05;9.73;;;;;;;23.92;57.83;101883.91;4977745;28;20045;-69
2022/07/30 06:37:41;;;;;;;14.52;9.18;;;;;;;24.05;57.09;101888.78;4971695;28;20391;-68
2022/07/30 06:40:07;;;;;;;11.15;7.75;;;;;;;23.63;58.83;101893.22;4982323;28;20030;-69
2022/07/30 06:42:33;;;;;;;16.05;8.95;;;;;;;24.04;57.53;101891.81;4990179;28;20104;-68
2022/07/30 06:44:58;;;;;;;11.65;8.45;;;;;;;24.25;57.16;101898.75;4990320;28;20038;-68
2022/07/30 06:47:28;;;;;;;17.00;9.48;;;;;;;24.38;56.87;101901.63;4989796;28;20030;-68
2022/07/30 06:49:56;;;;;;;12.18;7.30;;;;;;;24.40;56.78;101896.66;4990220;28;20018;-69
2022/07/30 06:52:22;;;;;;;18.50;8.82;;;;;;;24.20;57.15;101901.53;4991327;28;20034;-69
2022/07/30 06:54:48;;;;;;;11.75;7.90;;;;;;;23.97;57.36;101899.53;4990421;28;20386;-69
2022/07/30 06:57:15;;;;;;;13.18;7.65;;;;;;;23.81;57.92;101900.78;4990165;28;20061;-69
2022/07/30 06:59:40;;;;;;;15.13;7.53;;;;;;;24.33;57.23;101904.41;4989056;28;20248;-68
2022/07/30 07:02:06;;;;;;;14.73;8.23;;;;;;;24.16;57.40;101906.78;4990330;28;20440;-68
2022/07/30 07:04:31;;;;;;;12.13;8.40;;;;;;;24.52;57.19;101904.50;4993713;28;20038;-67
2022/07/30 07:06:57;;;;;;;13.70;8.88;;;;;;;24.57;57.30;101906.38;5009268;28;20110;-67
2022/07/30 07:09:23;;;;;;;16.65;7.25;;;;;;;24.18;58.03;101903.75;5009066;28;20489;-68
2022/07/30 07:11:48;;;;;;;16.05;7.30;;;;;;;24.41;56.79;101912.03;5009142;28;20042;-69
2022/07/30 07:14:13;;;;;;;17.60;6.93;;;;;;;23.88;58.44;101902.06;5008914;28;20053;-67
2022/07/30 07:16:39;;;;;;;10.40;6.47;;;;;;;24.37;57.40;101908.22;5008164;28;20137;-67
2022/07/30 07:19:04;;;;;;;13.38;6.03;;;;;;;24.49;55.93;101898.78;5007684;28;20044;-68
2022/07/30 07:21:30;;;;;;;15.55;6.35;;;;;;;24.28;55.91;101903.66;5008541;28;20044;-68
2022/07/30 07:23:56;;;;;;;12.77;5.18;;;;;;;24.43;54.93;101904.31;5008891;28;20417;-68
2022/07/30 07:26:21;;;;;;;16.02;5.03;;;;;;;24.92;53.84;101903.22;5009232;28;20069;-68
2022/07/30 07:28:46;;;;;;;10.73;5.10;;;;;;;24.95;54.24;101908.94;5008555;28;20041;-68
2022/07/30 07:31:12;;;;;;;15.85;5.63;;;;;;;24.36;55.30;101912.09;5009149;28;20033;-67
2022/07/30 07:33:39;;;;;;;11.13;4.55;;;;;;;24.76;53.40;101907.25;5008954;28;20505;-69
2022/07/30 07:36:05;;;;;;;6.70;4.10;;;;;;;25.27;52.09;101902.72;5008627;28;20490;-68
2022/07/30 07:38:30;;;;;;;13.55;4.85;;;;;;;25.14;52.81;101906.19;5008550;28;20034;-68
2022/07/30 07:40:55;;;;;;;10.30;4.53;;;;;;;24.59;53.76;101912.41;5007013;28;20537;-68
2022/07/30 07:43:21;;;;;;;9.93;4.68;;;;;;;24.18;54.44;101915.56;5006366;28;20026;-67
2022/07/30 07:45:46;;;;;;;15.85;4.55;;;;;;;24.41;54.53;101919.47;5008879;28;20037;-68
2022/07/30 07:48:12;;;;;;;11.13;4.32;;;;;;;23.67;54.89;101922.56;5008692;28;20034;-68
2022/07/30 07:50:37;;;;;;;8.45;3.83;;;;;;;24.56;52.97;101908.28;5008640;28;20030;-69
2022/07/30 07:53:03;;;;;;;11.05;3.63;;;;;;;24.52;52.87;101918.22;5007903;28;20053;-70
2022/07/30 07:55:29;;;;;;;11.48;5.53;;;;;;;25.32;50.68;101918.34;5008884;28;20041;-68
2022/07/30 07:57:54;;;;;;;5.18;2.97;;;;;;;25.45;50.48;101915.69;5008791;28;20034;-69
2022/07/30 08:00:19;;;;;;;9.70;3.88;;;;;;;24.99;50.79;101922.91;5008917;28;20053;-67
2022/07/30 08:02:46;;;;;;;8.05;2.95;;;;;;;25.14;50.36;101919.94;5008088;28;20033;-68
2022/07/30 08:05:12;;;;;;;7.30;3.90;;;;;;;25.18;49.77;101923.75;5007205;28;20033;-68
2022/07/30 08:07:38;;;;;;;9.05;3.42;;;;;;;24.88;50.10;101929.66;5009095;28;20100;-69
2022/07/30 08:10:05;;;;;;;6.63;2.58;;;;;;;24.92;49.06;101926.00;5008163;28;20041;-69
2022/07/30 08:12:30;;;;;;;13.30;3.30;;;;;;;24.97;49.15;101925.13;5008052;28;20053;-68
2022/07/30 08:14:56;;;;;;;6.88;3.25;;;;;;;24.93;50.38;101919.41;5009044;28;20030;-69
2022/07/30 08:17:21;;;;;;;13.68;3.17;;;;;;;25.38;48.68;101912.44;5011638;28;20095;-69
2022/07/30 08:19:47;;;;;;;8.95;2.97;;;;;;;25.65;47.24;101920.06;5010418;28;20029;-67
2022/07/30 08:22:12;;;;;;;9.10;3.17;;;;;;;25.51;48.09;101921.94;5012790;28;20022;-69
2022/07/30 08:24:38;;;;;;;12.95;3.15;;;;;;;25.15;49.36;101918.84;5006543;28;20046;-69
2022/07/30 08:27:03;;;;;;;11.02;3.50;;;;;;;25.46;48.49;101914.56;5012375;28;20387;-68
2022/07/30 08:29:29;;;;;;;11.80;3.28;;;;;;;25.49;48.48;101913.97;5010401;28;20558;-68
2022/07/30 08:31:54;;;;;;;12.73;3.03;;;;;;;25.02;49.09;101914.88;5012038;28;20045;-69
2022/07/30 08:34:20;;;;;;;7.78;3.75;;;;;;;24.96;48.44;101910.56;4997219;28;20022;-68
2022/07/30 08:36:46;;;;;;;7.60;2.88;;;;;;;24.90;48.78;101908.97;5011786;28;20054;-68
2022/07/30 08:39:11;;;;;;;8.10;3.00;;;;;;;25.03;48.72;101908.28;5010109;28;20037;-68
2022/07/30 08:41:36;;;;;;;9.32;3.45;;;;;;;25.95;46.29;101909.34;5011672;28;20044;-69
2022/07/30 08:44:03;;;;;;;6.25;2.50;;;;;;;25.89;45.63;101916.06;5011905;28;20034;-68
2022/07/30 08:46:32;;;;;;;8.00;2.63;;;;;;;25.59;45.33;101905.53;5012610;28;20085;-69
2022/07/30 08:48:58;;;;;;;8.05;2.50;;;;;;;25.88;44.58;101897.09;5012152;28;20030;-68
2022/07/30 08:51:24;;;;;;;7.15;3.28;;;;;;;25.74;45.66;101908.06;4973593;28;20395;-69
2022/07/30 08:53:50;;;;;;;5.03;2.75;;;;;;;26.72;43.73;101906.84;4973748;28;20042;-68
2022/07/30 08:56:15;;;;;;;6.47;2.50;;;;;;;26.28;44.36;101915.66;5011581;28;20420;-70
2022/07/30 08:58:42;;;;;;;10.10;3.10;;;;;;;25.77;44.99;101917.63;5012168;28;20087;-68
2022/07/30 09:01:08;;;;;;;8.10;2.60;;;;;;;25.35;45.08;101915.00;5011292;28;20040;-69
2022/07/30 09:03:34;;;;;;;5.95;2.30;;;;;;;25.97;44.32;101922.81;4993428;28;20478;-69
2022/07/30 09:06:01;;;;;;;15.55;2.38;;;;;;;26.51;43.24;101913.88;4989857;28;20048;-69
2022/07/30 09:08:27;;;;;;;9.30;2.25;;;;;;;27.06;42.12;101917.44;5011405;28;20034;-68
2022/07/30 09:10:52;;;;;;;14.68;2.65;;;;;;;26.71;42.25;101922.56;5011238;28;20026;-68
2022/07/30 09:13:33;;;;;;;9.93;2.72;;;;;;;25.94;42.67;101923.44;4997500;28;20042;-69
2022/07/30 09:16:00;;;;;;;5.32;1.98;;;;;;;26.97;40.92;101919.31;4981143;28;20045;-68
2022/07/30 09:18:28;;;;;;;8.10;2.10;;;;;;;26.27;42.37;101916.81;4972310;28;20628;-69
2022/07/30 09:20:54;;;;;;;9.85;2.50;;;;;;;27.08;41.04;101913.25;4987620;28;20066;-69
2022/07/30 09:23:20;;;;;;;9.25;3.03;;;;;;;26.87;41.65;101917.53;4990456;28;20112;-69
2022/07/30 09:25:48;;;;;;;7.53;2.35;;;;;;;27.29;42.21;101919.13;5006686;28;20042;-69
2022/07/30 09:28:14;;;;;;;6.97;2.38;;;;;;;26.54;42.34;101924.28;4989714;28;20077;-69
2022/07/30 09:30:46;;;;;;;6.43;2.55;;;;;;;26.56;42.16;101927.53;5003445;28;20091;-68
2022/07/30 09:33:12;;;;;;;5.88;2.65;;;;;;;26.54;40.93;101930.59;5005428;28;20073;-69
2022/07/30 09:35:38;;;;;;;7.13;2.20;;;;;;;26.77;40.23;101920.53;5008849;28;20061;-69
2022/07/30 09:38:05;;;;;;;4.65;1.80;;;;;;;27.42;39.73;101915.53;5009884;28;20087;-70
2022/07/30 09:40:30;;;;;;;4.45;1.85;;;;;;;28.08;38.58;101925.78;5010047;28;20038;-69
2022/07/30 09:43:03;;;;;;;11.43;2.00;;;;;;;27.42;38.81;101929.34;5010240;28;20045;-68
2022/07/30 09:45:29;;;;;;;2.53;1.48;;;;;;;27.52;38.98;101926.31;5000472;28;20429;-69
2022/07/30 09:47:54;;;;;;;5.47;1.67;;;;;;;27.34;37.18;101928.13;5008270;28;20037;-69
2022/07/30 09:50:20;;;;;;;8.38;2.20;;;;;;;27.47;37.20;101923.69;5010269;28;20560;-69
2022/07/30 09:52:48;;;;;;;6.93;1.85;;;;;;;27.24;38.23;101925.59;5005892;28;20038;-68
2022/07/30 09:55:27;;;;;;;7.47;1.92;;;;;;;26.05;41.31;101922.13;4996012;28;20094;-68
2022/07/30 09:57:55;;;;;;;4.55;1.80;;;;;;;27.36;38.00;101934.16;5002863;28;20158;-68
2022/07/30 10:00:23;;;;;;;7.43;1.90;;;;;;;26.86;37.83;101926.97;5009488;28;20044;-69
2022/07/30 10:02:50;;;;;;;5.50;2.08;;;;;;;27.86;37.20;101932.13;5002700;28;20091;-70
2022/07/30 10:05:18;;;;;;;7.10;2.03;;;;;;;27.51;36.94;101930.22;5000680;28;20042;-68
2022/07/30 10:07:49;;;;;;;7.47;2.00;;;;;;;27.23;38.35;101948.78;5006195;28;20401;-69
2022/07/30 10:10:16;;;;;;;6.85;2.47;;;;;;;27.09;37.92;101934.19;5004308;28;20076;-67
2022/07/30 10:12:42;;;;;;;5.18;1.80;;;;;;;27.15;37.36;101937.66;5005528;28;20065;-70
2022/07/30 10:15:09;;;;;;;5.20;2.13;;;;;;;27.44;37.42;101940.91;5005678;28;20049;-68
2022/07/30 10:17:37;;;;;;;6.38;2.05;;;;;;;27.64;37.81;101930.19;5003517;28;20030;-69
2022/07/30 10:20:06;;;;;;;6.55;1.95;;;;;;;27.34;37.79;101946.66;5005208;28;20046;-69
2022/07/30 10:22:33;;;;;;;7.28;1.90;;;;;;;27.39;37.34;101939.06;5003588;28;20040;-69
2022/07/30 10:24:59;;;;;;;6.00;2.33;;;;;;;27.26;38.18;101945.38;5005532;28;20398;-67
2022/07/30 10:27:25;;;;;;;6.18;1.98;;;;;;;27.23;38.79;101936.91;5003278;28;20045;-68
2022/07/30 10:29:51;;;;;;;10.70;2.25;;;;;;;27.46;38.44;101933.13;5005613;28;20065;-69
2022/07/30 10:32:16;;;;;;;5.55;1.60;;;;;;;27.62;36.69;101934.38;4999573;28;20053;-69
2022/07/30 10:34:42;;;;;;;11.55;1.88;;;;;;;27.83;35.82;101935.53;4998524;28;20040;-68
2022/07/30 10:37:09;;;;;;;5.68;1.67;;;;;;;28.31;34.53;101921.84;5005272;28;20030;-67
2022/07/30 10:39:46;;;;;;;6.07;2.10;;;;;;;28.22;35.47;101932.88;5006210;28;20038;-68
2022/07/30 10:42:20;;;;;;;7.78;2.40;;;;;;;28.67;35.85;101925.31;5008397;28;20445;-70
2022/07/30 10:45:02;;;;;;;6.13;1.88;;;;;;;28.94;34.93;101927.81;5003294;28;20045;-69
2022/07/30 10:47:28;;;;;;;5.35;2.72;;;;;;;28.66;34.68;101920.88;5007352;28;20088;-68
2022/07/30 10:50:13;;;;;;;5.07;2.00;;;;;;;28.37;35.21;101923.34;5007809;28;20039;-69
2022/07/30 10:52:50;;;;;;;7.38;2.03;;;;;;;28.10;36.28;101920.75;4977982;28;20041;-68
2022/07/30 10:55:18;;;;;;;2.78;1.73;;;;;;;29.13;34.39;101924.78;5000099;28;20053;-69
2022/07/30 10:58:15;;;;;;;5.65;2.35;;;;;;;29.09;34.22;101932.09;4993475;28;20045;-70
2022/07/30 11:00:53;;;;;;;3.50;1.80;;;;;;;28.61;34.31;101921.03;5004653;28;20125;-71
2022/07/30 11:03:25;;;;;;;30.27;3.17;;;;;;;28.62;33.84;101926.25;5004821;28;20037;-74
2022/07/30 11:06:15;;;;;;;6.03;2.03;;;;;;;28.88;33.11;101918.03;5008982;28;20073;-69
2022/07/30 11:08:44;;;;;;;6.68;2.00;;;;;;;29.17;32.79;101923.03;5007536;28;20406;-69
2022/07/30 11:11:21;;;;;;;7.60;2.07;;;;;;;29.44;33.97;101922.72;5005421;28;20049;-68
2022/07/30 11:13:55;;;;;;;6.05;1.80;;;;;;;29.95;31.58;101916.31;5006735;28;20456;-69
2022/07/30 11:16:32;;;;;;;4.97;1.58;;;;;;;29.08;32.97;101930.44;5006199;28;20022;-69
2022/07/30 11:19:15;;;;;;;6.40;1.65;;;;;;;28.97;31.32;101929.94;5006925;28;20124;-68
2022/07/30 11:21:41;;;;;;;4.05;1.40;;;;;;;29.51;30.67;101931.34;5003104;28;20104;-68